Rochester, NH (03839)

03:47 AM EDT die 26o April, anno 2017 (GMT -0400)
Gonic, NH | | Change Station

Elev 213 ft 43.25 °N, 70.99 °W | Updated 5 seconds ago

Aequaliter Nubila
Aequaliter Nubila
44.8 °F
Feels Like 45 °F
N
0.0
Ventus Variabilis Ventus from Inter Aquilonem et Eurum
Gusts 0.0 mph

Hodie
High -- | Low -- °F
--% Chance of Precip.
Yesterday
High -- | Low -- °F
Precip. -- in
Pressio 30.04 in
Visibilitas 4.0 milia passuum
Clouds Aequaliter Nubila 500 ft
Frigus Venti 45 °F
Frigus in quo Ros apparet 44 °F
Umor 97%
Rainfall 0.17 in
Snow Depth Not available.
5:44 AM 7:40 PM
Waning Crescent, 0% visible
SPECI KDAW 260711Z AUTO 02007KT 4SM BR OVC005 07/06 A3004 RMK AO2 RAE00 CIG 004V009 P0000 T00670056
Pressio 30.04 in
Visibilitas 4.0 milia passuum
Clouds Aequaliter Nubila 500 ft
Frigus Venti 45 °F
Frigus in quo Ros apparet 44 °F
Umor 97%
Rainfall 0.17 in
Snow Depth Not available.
5:44 AM 7:40 PM
Waning Crescent, 0% visible
SPECI KDAW 260711Z AUTO 02007KT 4SM BR OVC005 07/06 A3004 RMK AO2 RAE00 CIG 004V009 P0000 T00670056

Get Severe Weather Alerts

Thanks for signing up!

Be on the lookout for a verification email in your inbox.

You'll start receiving the daily forecast at 8 AM.

×

10-Day Weather Forecast

Almanac

Astronomy

Apr. 26, 2017 Rise Set
Actual Time
Civil Twilight
Nautical Twilight
Astronomical Twilight
Moon
Length Of Visible Light
Length of Day
Tomorrow will be .
, % of the Moon is Illuminated

Today's Extremes

State Highs State Lows

Community

WunderPhotos

WunderBlog® & News

Nearby

Air Quality

  Air Quality AQ Index Pollutant
Not available.

Snow Depth

Station Depth Elevation

Earthquake Activity

City Distance Mag. Time & Date
Minimum magnitude displayed is 2.5.

Coastal Water Temperatures

Locus Calor

Stations

Nearby Weather Stations

Station Location Temp Frigus Venti Frigus in quo Ros apparet Umor Ventus Precip. Elev Renovata Type
                   

Watches & Warnings

There are currently no watches in effect.